Honeycamp, Virginia
Current Conditions -  °F | °C
As of 4:55 AM on Thursday 23 Oct 2014 (Local Time) from KLNP Reporting Station
Overcast Overcast  
Wind Chill: 36°   Ceiling: 700
Heat Index: 41°   Visibility: 10mi
Dew Point: 41°   Wind: 8mph
Humidity: 100%   Direction: 350°N
Pressure: 30.17"   Gusts: NA
Location:  37.1698°N, 82.4517°W
Report Text: KLNP 230855Z AUTO 35007KT 10SM BKN007 OVC011 05/05 A3017 RMK AO2
Loading
Personal Weather Stations






























Interactive Weather Map
Tropical Storm Tracking
New forecast layout! Learn more

10-Day Weather Forecast

Advertisements
Track Severe Weather on mobile